sensor_id;sensor_type;location;lat;lon;timestamp;P1;durP1;ratioP1;P2;durP2;ratioP2
1799;SDS011;919;48.274;12.292;2023-08-06T00:01:27;4.97;;;4.47;;
1799;SDS011;919;48.274;12.292;2023-08-06T00:03:53;4.47;;;4.07;;
1799;SDS011;919;48.274;12.292;2023-08-06T00:06:20;5.23;;;4.80;;
1799;SDS011;919;48.274;12.292;2023-08-06T00:08:47;5.70;;;5.20;;
1799;SDS011;919;48.274;12.292;2023-08-06T00:11:13;7.63;;;5.30;;
1799;SDS011;919;48.274;12.292;2023-08-06T00:13:42;5.77;;;5.27;;
1799;SDS011;919;48.274;12.292;2023-08-06T00:16:09;4.50;;;4.10;;
1799;SDS011;919;48.274;12.292;2023-08-06T00:18:36;5.33;;;4.93;;
1799;SDS011;919;48.274;12.292;2023-08-06T00:21:03;6.53;;;4.03;;
1799;SDS011;919;48.274;12.292;2023-08-06T00:23:29;4.60;;;4.20;;
1799;SDS011;919;48.274;12.292;2023-08-06T00:25:56;4.43;;;4.03;;
1799;SDS011;919;48.274;12.292;2023-08-06T00:28:23;4.33;;;3.93;;
1799;SDS011;919;48.274;12.292;2023-08-06T00:30:53;4.80;;;4.40;;
1799;SDS011;919;48.274;12.292;2023-08-06T00:33:20;4.60;;;4.20;;
1799;SDS011;919;48.274;12.292;2023-08-06T00:35:47;4.43;;;4.10;;
1799;SDS011;919;48.274;12.292;2023-08-06T00:38:14;3.83;;;3.53;;
1799;SDS011;919;48.274;12.292;2023-08-06T00:40:40;4.13;;;3.73;;
1799;SDS011;919;48.274;12.292;2023-08-06T00:43:07;5.20;;;4.70;;
1799;SDS011;919;48.274;12.292;2023-08-06T00:45:34;4.17;;;3.77;;
1799;SDS011;919;48.274;12.292;2023-08-06T00:48:04;5.17;;;4.67;;
1799;SDS011;919;48.274;12.292;2023-08-06T00:50:32;3.90;;;3.60;;
1799;SDS011;919;48.274;12.292;2023-08-06T00:52:59;5.10;;;4.20;;
1799;SDS011;919;48.274;12.292;2023-08-06T00:55:26;4.30;;;3.90;;
1799;SDS011;919;48.274;12.292;2023-08-06T00:57:52;4.80;;;4.40;;
1799;SDS011;919;48.274;12.292;2023-08-06T01:00:21;4.03;;;3.73;;
1799;SDS011;919;48.274;12.292;2023-08-06T01:02:48;4.53;;;4.13;;
1799;SDS011;919;48.274;12.292;2023-08-06T01:05:16;5.20;;;4.70;;
1799;SDS011;919;48.274;12.292;2023-08-06T01:07:45;4.83;;;4.33;;
1799;SDS011;919;48.274;12.292;2023-08-06T01:10:23;8.17;;;4.20;;
1799;SDS011;919;48.274;12.292;2023-08-06T01:12:59;4.30;;;3.90;;
1799;SDS011;919;48.274;12.292;2023-08-06T01:15:35;4.03;;;3.57;;
1799;SDS011;919;48.274;12.292;2023-08-06T01:18:07;8.17;;;4.70;;
1799;SDS011;919;48.274;12.292;2023-08-06T01:20:35;4.40;;;4.00;;
1799;SDS011;919;48.274;12.292;2023-08-06T01:23:02;5.27;;;4.23;;
1799;SDS011;919;48.274;12.292;2023-08-06T01:25:29;4.53;;;4.13;;
1799;SDS011;919;48.274;12.292;2023-08-06T01:28:00;5.10;;;4.63;;
1799;SDS011;919;48.274;12.292;2023-08-06T01:30:33;5.67;;;5.07;;
1799;SDS011;919;48.274;12.292;2023-08-06T01:33:04;6.10;;;5.43;;
1799;SDS011;919;48.274;12.292;2023-08-06T01:35:31;5.73;;;5.03;;
1799;SDS011;919;48.274;12.292;2023-08-06T01:38:01;5.30;;;4.80;;
1799;SDS011;919;48.274;12.292;2023-08-06T01:40:28;4.67;;;4.37;;
1799;SDS011;919;48.274;12.292;2023-08-06T01:42:55;4.87;;;4.47;;
1799;SDS011;919;48.274;12.292;2023-08-06T01:45:22;4.60;;;4.20;;
1799;SDS011;919;48.274;12.292;2023-08-06T01:47:49;4.87;;;4.37;;
1799;SDS011;919;48.274;12.292;2023-08-06T01:50:15;4.97;;;4.20;;
1799;SDS011;919;48.274;12.292;2023-08-06T01:52:42;12.03;;;5.20;;
1799;SDS011;919;48.274;12.292;2023-08-06T01:55:10;7.50;;;6.27;;
1799;SDS011;919;48.274;12.292;2023-08-06T01:57:37;6.80;;;6.20;;
1799;SDS011;919;48.274;12.292;2023-08-06T02:00:04;7.03;;;6.33;;
1799;SDS011;919;48.274;12.292;2023-08-06T02:02:32;7.00;;;6.33;;
1799;SDS011;919;48.274;12.292;2023-08-06T02:04:59;6.00;;;5.50;;
1799;SDS011;919;48.274;12.292;2023-08-06T02:07:25;5.80;;;5.30;;
1799;SDS011;919;48.274;12.292;2023-08-06T02:09:52;6.33;;;5.73;;
1799;SDS011;919;48.274;12.292;2023-08-06T02:12:20;6.77;;;5.80;;
1799;SDS011;919;48.274;12.292;2023-08-06T02:14:47;6.60;;;5.77;;
1799;SDS011;919;48.274;12.292;2023-08-06T02:17:13;8.67;;;5.50;;
1799;SDS011;919;48.274;12.292;2023-08-06T02:19:40;6.57;;;5.90;;
1799;SDS011;919;48.274;12.292;2023-08-06T02:22:08;6.77;;;6.07;;
1799;SDS011;919;48.274;12.292;2023-08-06T02:24:35;7.77;;;7.17;;
1799;SDS011;919;48.274;12.292;2023-08-06T02:27:01;8.00;;;7.20;;
1799;SDS011;919;48.274;12.292;2023-08-06T02:29:29;8.33;;;7.40;;
1799;SDS011;919;48.274;12.292;2023-08-06T02:31:56;5.93;;;5.43;;
1799;SDS011;919;48.274;12.292;2023-08-06T02:34:23;5.73;;;4.33;;
1799;SDS011;919;48.274;12.292;2023-08-06T02:36:50;7.07;;;4.00;;
1799;SDS011;919;48.274;12.292;2023-08-06T02:39:17;4.63;;;4.23;;
1799;SDS011;919;48.274;12.292;2023-08-06T02:41:44;4.87;;;4.40;;
1799;SDS011;919;48.274;12.292;2023-08-06T02:44:11;4.80;;;4.50;;
1799;SDS011;919;48.274;12.292;2023-08-06T02:46:39;4.60;;;4.30;;
1799;SDS011;919;48.274;12.292;2023-08-06T02:49:06;5.10;;;4.67;;
1799;SDS011;919;48.274;12.292;2023-08-06T02:51:33;5.03;;;4.63;;
1799;SDS011;919;48.274;12.292;2023-08-06T02:54:00;4.97;;;4.47;;
1799;SDS011;919;48.274;12.292;2023-08-06T02:56:26;4.63;;;3.43;;
1799;SDS011;919;48.274;12.292;2023-08-06T02:58:53;3.63;;;3.33;;
1799;SDS011;919;48.274;12.292;2023-08-06T03:01:20;4.33;;;4.00;;
1799;SDS011;919;48.274;12.292;2023-08-06T03:03:49;5.97;;;3.67;;
1799;SDS011;919;48.274;12.292;2023-08-06T03:06:16;4.70;;;4.30;;
1799;SDS011;919;48.274;12.292;2023-08-06T03:08:43;4.43;;;4.03;;
1799;SDS011;919;48.274;12.292;2023-08-06T03:11:09;4.73;;;4.33;;
1799;SDS011;919;48.274;12.292;2023-08-06T03:13:36;3.97;;;3.67;;
1799;SDS011;919;48.274;12.292;2023-08-06T03:16:03;4.30;;;3.43;;
1799;SDS011;919;48.274;12.292;2023-08-06T03:18:30;3.90;;;3.10;;
1799;SDS011;919;48.274;12.292;2023-08-06T03:20:58;4.20;;;3.80;;
1799;SDS011;919;48.274;12.292;2023-08-06T03:23:24;3.93;;;3.13;;
1799;SDS011;919;48.274;12.292;2023-08-06T03:25:51;4.00;;;3.47;;
1799;SDS011;919;48.274;12.292;2023-08-06T03:28:18;4.70;;;4.20;;
1799;SDS011;919;48.274;12.292;2023-08-06T03:30:45;3.67;;;3.37;;
1799;SDS011;919;48.274;12.292;2023-08-06T03:33:11;3.00;;;2.80;;
1799;SDS011;919;48.274;12.292;2023-08-06T03:35:38;3.93;;;3.57;;
1799;SDS011;919;48.274;12.292;2023-08-06T03:38:06;3.90;;;3.60;;
1799;SDS011;919;48.274;12.292;2023-08-06T03:40:34;3.80;;;3.40;;
1799;SDS011;919;48.274;12.292;2023-08-06T03:43:01;3.20;;;2.90;;
1799;SDS011;919;48.274;12.292;2023-08-06T03:45:28;4.80;;;3.40;;
1799;SDS011;919;48.274;12.292;2023-08-06T03:47:55;3.97;;;3.03;;
1799;SDS011;919;48.274;12.292;2023-08-06T03:50:21;3.80;;;3.30;;
1799;SDS011;919;48.274;12.292;2023-08-06T03:52:48;2.80;;;2.60;;
1799;SDS011;919;48.274;12.292;2023-08-06T03:55:16;3.93;;;3.57;;
1799;SDS011;919;48.274;12.292;2023-08-06T03:57:43;3.00;;;2.80;;
1799;SDS011;919;48.274;12.292;2023-08-06T04:00:10;2.77;;;2.57;;
1799;SDS011;919;48.274;12.292;2023-08-06T04:02:37;3.30;;;3.10;;
1799;SDS011;919;48.274;12.292;2023-08-06T04:05:04;2.73;;;2.53;;
1799;SDS011;919;48.274;12.292;2023-08-06T04:07:31;3.23;;;2.93;;
1799;SDS011;919;48.274;12.292;2023-08-06T04:09:58;2.77;;;2.57;;
1799;SDS011;919;48.274;12.292;2023-08-06T04:12:28;3.70;;;3.40;;
1799;SDS011;919;48.274;12.292;2023-08-06T04:14:55;2.57;;;2.37;;
1799;SDS011;919;48.274;12.292;2023-08-06T04:17:23;3.27;;;3.03;;
1799;SDS011;919;48.274;12.292;2023-08-06T04:19:51;3.33;;;3.03;;
1799;SDS011;919;48.274;12.292;2023-08-06T04:22:18;3.07;;;2.87;;
1799;SDS011;919;48.274;12.292;2023-08-06T04:24:46;3.40;;;3.20;;
1799;SDS011;919;48.274;12.292;2023-08-06T04:27:14;3.17;;;2.70;;
1799;SDS011;919;48.274;12.292;2023-08-06T04:29:42;3.13;;;2.93;;
1799;SDS011;919;48.274;12.292;2023-08-06T04:32:10;4.43;;;2.90;;
1799;SDS011;919;48.274;12.292;2023-08-06T04:34:37;3.00;;;2.80;;
1799;SDS011;919;48.274;12.292;2023-08-06T04:37:04;3.50;;;3.20;;
1799;SDS011;919;48.274;12.292;2023-08-06T04:39:31;3.00;;;2.80;;
1799;SDS011;919;48.274;12.292;2023-08-06T04:41:57;2.80;;;2.60;;
1799;SDS011;919;48.274;12.292;2023-08-06T04:44:24;2.77;;;2.53;;
1799;SDS011;919;48.274;12.292;2023-08-06T04:46:52;3.17;;;2.97;;
1799;SDS011;919;48.274;12.292;2023-08-06T04:49:19;6.30;;;3.47;;
1799;SDS011;919;48.274;12.292;2023-08-06T04:51:46;3.30;;;3.10;;
1799;SDS011;919;48.274;12.292;2023-08-06T04:54:13;5.37;;;3.17;;
1799;SDS011;919;48.274;12.292;2023-08-06T04:56:40;2.53;;;2.33;;
1799;SDS011;919;48.274;12.292;2023-08-06T04:59:06;3.00;;;2.80;;
1799;SDS011;919;48.274;12.292;2023-08-06T05:01:33;3.30;;;3.10;;
1799;SDS011;919;48.274;12.292;2023-08-06T05:04:01;2.70;;;2.50;;
1799;SDS011;919;48.274;12.292;2023-08-06T05:06:28;2.63;;;2.43;;
1799;SDS011;919;48.274;12.292;2023-08-06T05:08:55;2.67;;;2.47;;
1799;SDS011;919;48.274;12.292;2023-08-06T05:11:21;3.70;;;3.40;;
1799;SDS011;919;48.274;12.292;2023-08-06T05:13:49;3.40;;;3.00;;
1799;SDS011;919;48.274;12.292;2023-08-06T05:16:15;3.83;;;3.53;;
1799;SDS011;919;48.274;12.292;2023-08-06T05:18:42;2.77;;;2.57;;
1799;SDS011;919;48.274;12.292;2023-08-06T05:21:10;2.53;;;2.33;;
1799;SDS011;919;48.274;12.292;2023-08-06T05:23:37;3.57;;;3.27;;
1799;SDS011;919;48.274;12.292;2023-08-06T05:26:04;3.73;;;3.43;;
1799;SDS011;919;48.274;12.292;2023-08-06T05:28:30;3.13;;;2.87;;
1799;SDS011;919;48.274;12.292;2023-08-06T05:30:57;3.23;;;3.03;;
1799;SDS011;919;48.274;12.292;2023-08-06T05:33:24;11.47;;;3.43;;
1799;SDS011;919;48.274;12.292;2023-08-06T05:35:50;6.73;;;3.30;;
1799;SDS011;919;48.274;12.292;2023-08-06T05:38:18;3.77;;;2.97;;
1799;SDS011;919;48.274;12.292;2023-08-06T05:40:45;3.53;;;3.23;;
1799;SDS011;919;48.274;12.292;2023-08-06T05:43:12;3.83;;;3.40;;
1799;SDS011;919;48.274;12.292;2023-08-06T05:45:39;3.70;;;2.97;;
1799;SDS011;919;48.274;12.292;2023-08-06T05:48:09;3.67;;;3.37;;
1799;SDS011;919;48.274;12.292;2023-08-06T05:50:36;3.40;;;2.93;;
1799;SDS011;919;48.274;12.292;2023-08-06T05:53:03;2.60;;;2.40;;
1799;SDS011;919;48.274;12.292;2023-08-06T05:55:31;2.70;;;2.50;;
1799;SDS011;919;48.274;12.292;2023-08-06T05:57:58;3.00;;;2.80;;
1799;SDS011;919;48.274;12.292;2023-08-06T06:00:25;3.30;;;2.60;;
1799;SDS011;919;48.274;12.292;2023-08-06T06:02:51;3.07;;;2.77;;
1799;SDS011;919;48.274;12.292;2023-08-06T06:05:18;2.50;;;2.30;;
1799;SDS011;919;48.274;12.292;2023-08-06T06:07:45;3.90;;;2.50;;
1799;SDS011;919;48.274;12.292;2023-08-06T06:10:11;5.33;;;2.53;;
1799;SDS011;919;48.274;12.292;2023-08-06T06:12:40;2.87;;;2.50;;
1799;SDS011;919;48.274;12.292;2023-08-06T06:15:07;3.50;;;2.10;;
1799;SDS011;919;48.274;12.292;2023-08-06T06:17:34;2.90;;;2.70;;
1799;SDS011;919;48.274;12.292;2023-08-06T06:20:00;4.23;;;2.73;;
1799;SDS011;919;48.274;12.292;2023-08-06T06:22:29;4.20;;;2.70;;
1799;SDS011;919;48.274;12.292;2023-08-06T06:24:55;3.27;;;2.97;;
1799;SDS011;919;48.274;12.292;2023-08-06T06:27:22;2.33;;;2.13;;
1799;SDS011;919;48.274;12.292;2023-08-06T06:29:50;2.80;;;2.30;;
1799;SDS011;919;48.274;12.292;2023-08-06T06:32:19;2.33;;;2.13;;
1799;SDS011;919;48.274;12.292;2023-08-06T06:34:46;2.93;;;2.73;;
1799;SDS011;919;48.274;12.292;2023-08-06T06:37:13;2.03;;;1.93;;
1799;SDS011;919;48.274;12.292;2023-08-06T06:39:39;2.87;;;2.30;;
1799;SDS011;919;48.274;12.292;2023-08-06T06:42:06;3.10;;;2.40;;
1799;SDS011;919;48.274;12.292;2023-08-06T06:44:33;2.80;;;2.50;;
1799;SDS011;919;48.274;12.292;2023-08-06T06:47:01;2.90;;;2.30;;
1799;SDS011;919;48.274;12.292;2023-08-06T06:49:28;2.60;;;2.40;;
1799;SDS011;919;48.274;12.292;2023-08-06T06:51:54;2.70;;;2.50;;
1799;SDS011;919;48.274;12.292;2023-08-06T06:54:21;2.53;;;2.33;;
1799;SDS011;919;48.274;12.292;2023-08-06T06:56:48;2.57;;;2.37;;
1799;SDS011;919;48.274;12.292;2023-08-06T06:59:15;4.03;;;2.37;;
1799;SDS011;919;48.274;12.292;2023-08-06T07:01:41;2.30;;;2.10;;
1799;SDS011;919;48.274;12.292;2023-08-06T07:04:10;4.10;;;2.07;;
1799;SDS011;919;48.274;12.292;2023-08-06T07:06:36;1.80;;;1.70;;
1799;SDS011;919;48.274;12.292;2023-08-06T07:09:03;3.43;;;1.77;;
1799;SDS011;919;48.274;12.292;2023-08-06T07:11:30;3.23;;;2.00;;
1799;SDS011;919;48.274;12.292;2023-08-06T07:13:57;2.30;;;1.90;;
1799;SDS011;919;48.274;12.292;2023-08-06T07:16:24;2.40;;;2.20;;
1799;SDS011;919;48.274;12.292;2023-08-06T07:18:51;3.27;;;2.27;;
1799;SDS011;919;48.274;12.292;2023-08-06T07:21:20;2.13;;;1.93;;
1799;SDS011;919;48.274;12.292;2023-08-06T07:23:47;4.27;;;2.90;;
1799;SDS011;919;48.274;12.292;2023-08-06T07:26:15;2.70;;;2.17;;
1799;SDS011;919;48.274;12.292;2023-08-06T07:28:42;2.10;;;1.90;;
1799;SDS011;919;48.274;12.292;2023-08-06T07:31:09;2.10;;;2.00;;
1799;SDS011;919;48.274;12.292;2023-08-06T07:33:36;2.17;;;2.00;;
1799;SDS011;919;48.274;12.292;2023-08-06T07:36:10;1.87;;;1.73;;
1799;SDS011;919;48.274;12.292;2023-08-06T07:38:40;2.00;;;1.90;;
1799;SDS011;919;48.274;12.292;2023-08-06T07:41:08;5.23;;;1.90;;
1799;SDS011;919;48.274;12.292;2023-08-06T07:43:34;2.37;;;2.17;;
1799;SDS011;919;48.274;12.292;2023-08-06T07:46:01;2.40;;;2.00;;
1799;SDS011;919;48.274;12.292;2023-08-06T07:48:28;1.60;;;1.37;;
1799;SDS011;919;48.274;12.292;2023-08-06T07:50:55;1.70;;;1.60;;
1799;SDS011;919;48.274;12.292;2023-08-06T07:53:23;2.00;;;1.60;;
1799;SDS011;919;48.274;12.292;2023-08-06T07:55:55;2.70;;;1.50;;
1799;SDS011;919;48.274;12.292;2023-08-06T07:58:23;1.53;;;1.30;;
1799;SDS011;919;48.274;12.292;2023-08-06T08:00:50;1.80;;;1.40;;
1799;SDS011;919;48.274;12.292;2023-08-06T08:03:17;1.73;;;1.63;;
1799;SDS011;919;48.274;12.292;2023-08-06T08:05:44;5.80;;;1.43;;
1799;SDS011;919;48.274;12.292;2023-08-06T08:08:11;2.00;;;1.80;;
1799;SDS011;919;48.274;12.292;2023-08-06T08:10:38;1.70;;;1.60;;
1799;SDS011;919;48.274;12.292;2023-08-06T08:13:06;1.50;;;1.40;;
1799;SDS011;919;48.274;12.292;2023-08-06T08:15:33;1.80;;;1.43;;
1799;SDS011;919;48.274;12.292;2023-08-06T08:18:00;5.10;;;1.77;;
1799;SDS011;919;48.274;12.292;2023-08-06T08:20:27;3.57;;;2.40;;
1799;SDS011;919;48.274;12.292;2023-08-06T08:22:57;1.50;;;1.40;;
1799;SDS011;919;48.274;12.292;2023-08-06T08:25:24;4.10;;;1.47;;
1799;SDS011;919;48.274;12.292;2023-08-06T08:27:51;1.27;;;1.17;;
1799;SDS011;919;48.274;12.292;2023-08-06T08:30:20;1.37;;;1.27;;
1799;SDS011;919;48.274;12.292;2023-08-06T08:32:47;1.07;;;1.07;;
1799;SDS011;919;48.274;12.292;2023-08-06T08:35:14;1.00;;;0.90;;
1799;SDS011;919;48.274;12.292;2023-08-06T08:37:41;0.80;;;0.80;;
1799;SDS011;919;48.274;12.292;2023-08-06T08:40:08;0.63;;;0.63;;
1799;SDS011;919;48.274;12.292;2023-08-06T08:42:48;2.07;;;1.20;;
1799;SDS011;919;48.274;12.292;2023-08-06T08:45:29;1.03;;;0.70;;
1799;SDS011;919;48.274;12.292;2023-08-06T08:48:06;1.33;;;0.80;;
1799;SDS011;919;48.274;12.292;2023-08-06T08:50:37;3.03;;;0.97;;
1799;SDS011;919;48.274;12.292;2023-08-06T08:53:08;1.40;;;0.87;;
1799;SDS011;919;48.274;12.292;2023-08-06T08:55:38;0.67;;;0.67;;
1799;SDS011;919;48.274;12.292;2023-08-06T08:58:05;0.60;;;0.50;;
1799;SDS011;919;48.274;12.292;2023-08-06T09:00:42;1.20;;;0.50;;
1799;SDS011;919;48.274;12.292;2023-08-06T09:03:09;1.00;;;0.70;;
1799;SDS011;919;48.274;12.292;2023-08-06T09:05:36;1.13;;;0.90;;
1799;SDS011;919;48.274;12.292;2023-08-06T09:08:17;1.10;;;1.10;;
1799;SDS011;919;48.274;12.292;2023-08-06T09:10:47;2.40;;;0.90;;
1799;SDS011;919;48.274;12.292;2023-08-06T09:13:15;1.00;;;0.80;;
1799;SDS011;919;48.274;12.292;2023-08-06T09:15:49;0.90;;;0.80;;
1799;SDS011;919;48.274;12.292;2023-08-06T09:18:24;0.97;;;0.80;;
1799;SDS011;919;48.274;12.292;2023-08-06T09:20:52;1.90;;;0.80;;
1799;SDS011;919;48.274;12.292;2023-08-06T09:23:18;0.80;;;0.80;;
1799;SDS011;919;48.274;12.292;2023-08-06T09:26:10;4.03;;;0.97;;
1799;SDS011;919;48.274;12.292;2023-08-06T09:28:39;0.70;;;0.70;;
1799;SDS011;919;48.274;12.292;2023-08-06T09:31:09;1.20;;;1.10;;
1799;SDS011;919;48.274;12.292;2023-08-06T09:33:39;2.77;;;0.70;;
1799;SDS011;919;48.274;12.292;2023-08-06T09:36:10;2.00;;;1.00;;
1799;SDS011;919;48.274;12.292;2023-08-06T09:38:37;1.00;;;1.00;;
1799;SDS011;919;48.274;12.292;2023-08-06T09:41:05;7.00;;;0.80;;
1799;SDS011;919;48.274;12.292;2023-08-06T09:43:39;0.80;;;0.80;;
1799;SDS011;919;48.274;12.292;2023-08-06T09:46:13;2.43;;;1.10;;
1799;SDS011;919;48.274;12.292;2023-08-06T09:48:44;0.97;;;0.73;;
1799;SDS011;919;48.274;12.292;2023-08-06T09:51:12;1.20;;;1.03;;
1799;SDS011;919;48.274;12.292;2023-08-06T09:53:41;1.07;;;0.80;;
1799;SDS011;919;48.274;12.292;2023-08-06T09:56:10;1.17;;;0.93;;
1799;SDS011;919;48.274;12.292;2023-08-06T09:58:41;0.90;;;0.90;;
1799;SDS011;919;48.274;12.292;2023-08-06T10:01:09;0.70;;;0.70;;
1799;SDS011;919;48.274;12.292;2023-08-06T10:03:40;1.40;;;0.87;;
1799;SDS011;919;48.274;12.292;2023-08-06T10:06:08;1.03;;;0.80;;
1799;SDS011;919;48.274;12.292;2023-08-06T10:08:37;0.80;;;0.80;;
1799;SDS011;919;48.274;12.292;2023-08-06T10:11:05;0.80;;;0.80;;
1799;SDS011;919;48.274;12.292;2023-08-06T10:13:33;0.77;;;0.77;;
1799;SDS011;919;48.274;12.292;2023-08-06T10:16:02;0.57;;;0.57;;
1799;SDS011;919;48.274;12.292;2023-08-06T10:18:34;1.17;;;0.50;;
1799;SDS011;919;48.274;12.292;2023-08-06T10:21:05;0.70;;;0.60;;
1799;SDS011;919;48.274;12.292;2023-08-06T10:23:40;1.47;;;0.60;;
1799;SDS011;919;48.274;12.292;2023-08-06T10:26:07;0.50;;;0.50;;
1799;SDS011;919;48.274;12.292;2023-08-06T10:28:35;0.57;;;0.53;;
1799;SDS011;919;48.274;12.292;2023-08-06T10:31:03;1.73;;;0.60;;
1799;SDS011;919;48.274;12.292;2023-08-06T10:33:42;0.77;;;0.77;;
1799;SDS011;919;48.274;12.292;2023-08-06T10:36:11;0.40;;;0.40;;
1799;SDS011;919;48.274;12.292;2023-08-06T10:38:44;0.50;;;0.50;;
1799;SDS011;919;48.274;12.292;2023-08-06T10:41:16;0.80;;;0.80;;
1799;SDS011;919;48.274;12.292;2023-08-06T10:43:53;3.07;;;0.70;;
1799;SDS011;919;48.274;12.292;2023-08-06T10:46:34;0.70;;;0.70;;
1799;SDS011;919;48.274;12.292;2023-08-06T10:49:03;0.60;;;0.60;;
1799;SDS011;919;48.274;12.292;2023-08-06T10:51:32;0.70;;;0.70;;
1799;SDS011;919;48.274;12.292;2023-08-06T10:53:59;0.50;;;0.50;;
1799;SDS011;919;48.274;12.292;2023-08-06T10:56:26;0.60;;;0.60;;
1799;SDS011;919;48.274;12.292;2023-08-06T10:58:54;0.67;;;0.33;;
1799;SDS011;919;48.274;12.292;2023-08-06T11:01:22;1.33;;;0.67;;
1799;SDS011;919;48.274;12.292;2023-08-06T11:03:50;0.70;;;0.70;;
1799;SDS011;919;48.274;12.292;2023-08-06T11:06:20;0.93;;;0.83;;
1799;SDS011;919;48.274;12.292;2023-08-06T11:08:51;1.43;;;0.50;;
1799;SDS011;919;48.274;12.292;2023-08-06T11:11:26;1.70;;;0.50;;
1799;SDS011;919;48.274;12.292;2023-08-06T11:13:55;0.87;;;0.63;;
1799;SDS011;919;48.274;12.292;2023-08-06T11:16:26;0.50;;;0.40;;
1799;SDS011;919;48.274;12.292;2023-08-06T11:18:54;0.63;;;0.50;;
1799;SDS011;919;48.274;12.292;2023-08-06T11:21:27;1.47;;;0.63;;
1799;SDS011;919;48.274;12.292;2023-08-06T11:23:57;0.50;;;0.50;;
1799;SDS011;919;48.274;12.292;2023-08-06T11:26:25;0.93;;;0.50;;
1799;SDS011;919;48.274;12.292;2023-08-06T11:28:54;1.03;;;0.93;;
1799;SDS011;919;48.274;12.292;2023-08-06T11:31:22;0.83;;;0.70;;
1799;SDS011;919;48.274;12.292;2023-08-06T11:33:51;0.40;;;0.40;;
1799;SDS011;919;48.274;12.292;2023-08-06T11:36:29;0.70;;;0.47;;
1799;SDS011;919;48.274;12.292;2023-08-06T11:39:07;0.50;;;0.50;;
1799;SDS011;919;48.274;12.292;2023-08-06T11:41:35;0.50;;;0.50;;
1799;SDS011;919;48.274;12.292;2023-08-06T11:44:04;0.30;;;0.30;;
1799;SDS011;919;48.274;12.292;2023-08-06T11:49:18;0.60;;;0.50;;
1799;SDS011;919;48.274;12.292;2023-08-06T11:51:48;0.70;;;0.70;;
1799;SDS011;919;48.274;12.292;2023-08-06T11:54:30;0.60;;;0.60;;
1799;SDS011;919;48.274;12.292;2023-08-06T11:56:58;1.23;;;0.50;;
1799;SDS011;919;48.274;12.292;2023-08-06T11:59:27;1.07;;;0.60;;
1799;SDS011;919;48.274;12.292;2023-08-06T12:01:54;0.93;;;0.67;;
1799;SDS011;919;48.274;12.292;2023-08-06T12:04:23;0.50;;;0.50;;
1799;SDS011;919;48.274;12.292;2023-08-06T12:06:51;4.17;;;0.90;;
1799;SDS011;919;48.274;12.292;2023-08-06T12:09:18;0.43;;;0.40;;
1799;SDS011;919;48.274;12.292;2023-08-06T12:11:45;0.70;;;0.57;;
1799;SDS011;919;48.274;12.292;2023-08-06T12:14:13;0.67;;;0.67;;
1799;SDS011;919;48.274;12.292;2023-08-06T12:16:40;0.90;;;0.70;;
1799;SDS011;919;48.274;12.292;2023-08-06T12:19:07;0.40;;;0.40;;
1799;SDS011;919;48.274;12.292;2023-08-06T12:21:34;0.50;;;0.50;;
1799;SDS011;919;48.274;12.292;2023-08-06T12:24:03;0.50;;;0.50;;
1799;SDS011;919;48.274;12.292;2023-08-06T12:26:33;0.70;;;0.50;;
1799;SDS011;919;48.274;12.292;2023-08-06T12:29:31;0.40;;;0.40;;
1799;SDS011;919;48.274;12.292;2023-08-06T12:32:00;0.97;;;0.40;;
1799;SDS011;919;48.274;12.292;2023-08-06T12:34:27;0.57;;;0.33;;
1799;SDS011;919;48.274;12.292;2023-08-06T12:36:54;0.30;;;0.30;;
1799;SDS011;919;48.274;12.292;2023-08-06T12:39:22;0.37;;;0.37;;
1799;SDS011;919;48.274;12.292;2023-08-06T12:41:50;0.60;;;0.40;;
1799;SDS011;919;48.274;12.292;2023-08-06T12:44:20;0.40;;;0.40;;
1799;SDS011;919;48.274;12.292;2023-08-06T12:46:48;1.33;;;0.50;;
1799;SDS011;919;48.274;12.292;2023-08-06T12:49:17;0.43;;;0.43;;
1799;SDS011;919;48.274;12.292;2023-08-06T12:51:52;0.63;;;0.60;;
1799;SDS011;919;48.274;12.292;2023-08-06T12:54:23;0.60;;;0.30;;
1799;SDS011;919;48.274;12.292;2023-08-06T12:56:52;0.73;;;0.30;;
1799;SDS011;919;48.274;12.292;2023-08-06T12:59:19;0.40;;;0.40;;
1799;SDS011;919;48.274;12.292;2023-08-06T13:01:47;1.17;;;0.30;;
1799;SDS011;919;48.274;12.292;2023-08-06T13:04:15;0.30;;;0.30;;
1799;SDS011;919;48.274;12.292;2023-08-06T13:06:44;0.40;;;0.30;;
1799;SDS011;919;48.274;12.292;2023-08-06T13:09:13;0.60;;;0.33;;
1799;SDS011;919;48.274;12.292;2023-08-06T13:11:43;1.00;;;0.30;;
1799;SDS011;919;48.274;12.292;2023-08-06T13:14:12;1.53;;;0.37;;
1799;SDS011;919;48.274;12.292;2023-08-06T13:16:44;0.40;;;0.37;;
1799;SDS011;919;48.274;12.292;2023-08-06T13:19:11;0.40;;;0.30;;
1799;SDS011;919;48.274;12.292;2023-08-06T13:24:28;0.40;;;0.30;;
1799;SDS011;919;48.274;12.292;2023-08-06T13:26:57;1.43;;;0.50;;
1799;SDS011;919;48.274;12.292;2023-08-06T13:29:25;0.60;;;0.30;;
1799;SDS011;919;48.274;12.292;2023-08-06T13:32:00;0.30;;;0.30;;
1799;SDS011;919;48.274;12.292;2023-08-06T13:34:28;0.40;;;0.40;;
1799;SDS011;919;48.274;12.292;2023-08-06T13:36:55;0.40;;;0.40;;
1799;SDS011;919;48.274;12.292;2023-08-06T13:39:22;0.40;;;0.40;;
1799;SDS011;919;48.274;12.292;2023-08-06T13:41:50;0.60;;;0.30;;
1799;SDS011;919;48.274;12.292;2023-08-06T13:44:19;0.77;;;0.40;;
1799;SDS011;919;48.274;12.292;2023-08-06T13:46:46;0.30;;;0.30;;
1799;SDS011;919;48.274;12.292;2023-08-06T13:49:14;0.40;;;0.40;;
1799;SDS011;919;48.274;12.292;2023-08-06T13:51:41;0.30;;;0.30;;
1799;SDS011;919;48.274;12.292;2023-08-06T13:54:09;0.30;;;0.23;;
1799;SDS011;919;48.274;12.292;2023-08-06T13:56:36;0.40;;;0.33;;
1799;SDS011;919;48.274;12.292;2023-08-06T13:59:04;0.60;;;0.40;;
1799;SDS011;919;48.274;12.292;2023-08-06T14:01:33;0.67;;;0.40;;
1799;SDS011;919;48.274;12.292;2023-08-06T14:04:00;0.40;;;0.40;;
1799;SDS011;919;48.274;12.292;2023-08-06T14:06:28;0.87;;;0.50;;
1799;SDS011;919;48.274;12.292;2023-08-06T14:08:55;0.40;;;0.30;;
1799;SDS011;919;48.274;12.292;2023-08-06T14:11:26;0.30;;;0.30;;
1799;SDS011;919;48.274;12.292;2023-08-06T14:13:54;0.53;;;0.43;;
1799;SDS011;919;48.274;12.292;2023-08-06T14:16:23;0.30;;;0.30;;
1799;SDS011;919;48.274;12.292;2023-08-06T14:19:01;0.40;;;0.40;;
1799;SDS011;919;48.274;12.292;2023-08-06T14:21:29;0.63;;;0.50;;
1799;SDS011;919;48.274;12.292;2023-08-06T14:23:57;0.40;;;0.40;;
1799;SDS011;919;48.274;12.292;2023-08-06T14:26:24;0.50;;;0.30;;
1799;SDS011;919;48.274;12.292;2023-08-06T14:28:51;1.43;;;0.37;;
1799;SDS011;919;48.274;12.292;2023-08-06T14:31:20;0.40;;;0.33;;
1799;SDS011;919;48.274;12.292;2023-08-06T14:33:47;0.53;;;0.33;;
1799;SDS011;919;48.274;12.292;2023-08-06T14:36:16;0.40;;;0.30;;
1799;SDS011;919;48.274;12.292;2023-08-06T14:38:45;0.40;;;0.40;;
1799;SDS011;919;48.274;12.292;2023-08-06T14:41:13;0.47;;;0.47;;
1799;SDS011;919;48.274;12.292;2023-08-06T14:43:40;0.50;;;0.33;;
1799;SDS011;919;48.274;12.292;2023-08-06T14:46:07;0.30;;;0.30;;
1799;SDS011;919;48.274;12.292;2023-08-06T14:48:36;0.80;;;0.47;;
1799;SDS011;919;48.274;12.292;2023-08-06T14:51:04;0.77;;;0.40;;
1799;SDS011;919;48.274;12.292;2023-08-06T14:53:35;1.53;;;0.40;;
1799;SDS011;919;48.274;12.292;2023-08-06T14:56:03;0.40;;;0.40;;
1799;SDS011;919;48.274;12.292;2023-08-06T14:58:31;1.67;;;0.40;;
1799;SDS011;919;48.274;12.292;2023-08-06T15:00:59;1.90;;;0.37;;
1799;SDS011;919;48.274;12.292;2023-08-06T15:03:35;3.50;;;0.40;;
1799;SDS011;919;48.274;12.292;2023-08-06T15:06:02;0.40;;;0.30;;
1799;SDS011;919;48.274;12.292;2023-08-06T15:08:29;0.30;;;0.30;;
1799;SDS011;919;48.274;12.292;2023-08-06T15:10:58;0.40;;;0.30;;
1799;SDS011;919;48.274;12.292;2023-08-06T15:13:27;0.40;;;0.30;;
1799;SDS011;919;48.274;12.292;2023-08-06T15:15:54;0.40;;;0.30;;
1799;SDS011;919;48.274;12.292;2023-08-06T15:18:23;0.40;;;0.30;;
1799;SDS011;919;48.274;12.292;2023-08-06T15:20:55;1.77;;;0.60;;
1799;SDS011;919;48.274;12.292;2023-08-06T15:23:30;0.60;;;0.60;;
1799;SDS011;919;48.274;12.292;2023-08-06T15:25:58;0.50;;;0.50;;
1799;SDS011;919;48.274;12.292;2023-08-06T15:28:25;0.37;;;0.37;;